Terminal Aerodrome Forecast
Issued by NWS Knoxville/Tri Cities, TN

Home | Current Version | Previous Version | Text Only | Print | Product List | Glossary On
Versions: 1 2 3 4 5 6 7 8 9 10 11 12 13 14 15 16 17 18 19 20 21 22 23 24 25 26 27 28 29 30 31 32 33 34 35 36 37 38
000
FTUS44 KMRX 231121
TAFTYS
TAF
KTYS 231121Z 2312/2412 23009KT P6SM VCSH BKN090
     FM231500 23015G20KT P6SM SCT020 OVC040
     FM232100 22018G28KT P6SM VCTS BKN050CB OVC250
      TEMPO 2400/2402 4SM -TSRA BKN030CB
     FM240400 23010G15KT P6SM -SHRA OVC030
     FM240900 23007KT 6SM BR OVC020=

USA.gov is the U.S. government's official web portal to all federal, state and local government web resources and services.